Time;durP1;ratioP1;P1;durP2;ratioP2;P2;SDS_P1;SDS_P2;PMS_P1;PMS_P2;Temp;Humidity;BMP_temperature;BMP_pressure;BME280_temperature;BME280_humidity;BME280_pressure;Samples;Min_cycle;Max_cycle;Signal;HPM_P1;HPM_P2
2022/08/21 00:02:26;;;;;;;8.73;7.88;;;;;;;19.12;72.42;100847.31;5061787;28;20026;-24
2022/08/21 00:04:52;;;;;;;8.20;7.43;;;;;;;19.09;72.35;100840.31;5067029;28;20017;-24
2022/08/21 00:07:20;;;;;;;8.70;7.80;;;;;;;19.08;72.51;100842.09;5066336;28;20020;-24
2022/08/21 00:09:46;;;;;;;7.88;7.18;;;;;;;19.07;72.59;100837.69;5064834;28;20476;-24
2022/08/21 00:12:12;;;;;;;8.13;7.32;;;;;;;19.06;72.44;100838.63;5063653;28;20067;-24
2022/08/21 00:14:38;;;;;;;7.65;6.75;;;;;;;19.06;72.39;100843.97;5069105;28;20023;-24
2022/08/21 00:17:04;;;;;;;9.23;7.88;;;;;;;19.05;72.33;100850.25;5069079;28;20024;-24
2022/08/21 00:19:31;;;;;;;8.65;7.82;;;;;;;19.05;72.51;100849.34;5070693;28;20510;-23
2022/08/21 00:21:57;;;;;;;9.57;8.35;;;;;;;19.03;72.43;100849.41;5070389;28;20051;-24
2022/08/21 00:24:23;;;;;;;9.23;7.43;;;;;;;19.03;72.37;100849.41;5070372;28;20052;-24
2022/08/21 00:26:49;;;;;;;8.02;7.22;;;;;;;19.01;72.49;100843.28;5067709;28;20086;-23
2022/08/21 00:29:14;;;;;;;11.90;7.10;;;;;;;19.00;72.53;100843.34;5068594;28;20029;-24
2022/08/21 00:31:41;;;;;;;8.93;8.02;;;;;;;18.98;72.25;100846.94;5069188;28;20026;-24
2022/08/21 00:34:07;;;;;;;10.38;7.40;;;;;;;19.00;72.62;100843.34;5066813;28;20017;-24
2022/08/21 00:36:33;;;;;;;9.20;6.88;;;;;;;18.98;72.42;100851.44;5069260;28;20511;-24
2022/08/21 00:38:59;;;;;;;8.02;7.22;;;;;;;18.96;72.67;100848.81;5064990;28;20020;-23
2022/08/21 00:41:24;;;;;;;9.23;7.10;;;;;;;18.96;72.63;100848.81;5060396;28;20468;-24
2022/08/21 00:43:51;;;;;;;7.20;6.50;;;;;;;18.96;72.58;100848.81;5066932;28;20036;-24
2022/08/21 00:46:16;;;;;;;7.75;7.05;;;;;;;18.96;72.65;100831.91;5065171;28;20379;-24
2022/08/21 00:48:42;;;;;;;8.35;6.80;;;;;;;18.95;72.58;100831.06;5068957;28;20043;-24
2022/08/21 00:51:14;;;;;;;8.30;7.05;;;;;;;18.95;72.87;100839.06;5064548;28;20021;-24
2022/08/21 00:53:41;;;;;;;6.85;6.25;;;;;;;18.94;72.69;100836.47;5068564;28;20134;-24
2022/08/21 00:56:08;;;;;;;7.32;6.63;;;;;;;18.94;72.94;100844.47;5080180;28;20023;-24
2022/08/21 00:58:35;;;;;;;6.00;5.40;;;;;;;18.93;72.54;100840.03;5063790;28;20048;-24
2022/08/21 01:01:01;;;;;;;6.68;6.07;;;;;;;18.93;72.65;100845.38;5072379;28;20052;-23
2022/08/21 01:03:27;;;;;;;6.45;5.85;;;;;;;18.92;72.53;100843.66;5053167;28;20025;-24
2022/08/21 01:05:53;;;;;;;7.03;6.32;;;;;;;18.91;72.48;100845.44;5059434;28;20475;-24
2022/08/21 01:08:19;;;;;;;5.95;5.35;;;;;;;18.91;72.67;100844.59;5073575;28;20094;-24
2022/08/21 01:10:46;;;;;;;6.65;6.00;;;;;;;18.91;72.74;100845.44;5073661;28;20058;-24
2022/08/21 01:13:14;;;;;;;5.55;5.05;;;;;;;18.90;72.49;100848.22;5071847;28;20025;-24
2022/08/21 01:15:43;;;;;;;5.82;5.32;;;;;;;18.89;72.64;100844.66;5072063;28;20027;-23
2022/08/21 01:18:10;;;;;;;6.60;5.50;;;;;;;18.88;72.60;100850.94;5071971;28;20032;-22
2022/08/21 01:20:38;;;;;;;6.25;5.47;;;;;;;18.87;72.88;100843.84;5073459;28;20459;-21
2022/08/21 01:23:04;;;;;;;5.32;4.82;;;;;;;18.85;72.69;100846.56;5073085;28;20203;-22
2022/08/21 01:25:30;;;;;;;5.55;5.05;;;;;;;18.83;72.79;100829.75;5072837;28;20035;-21
2022/08/21 01:27:57;;;;;;;4.88;4.47;;;;;;;18.83;72.79;100837.75;5071833;28;20016;-22
2022/08/21 01:30:25;;;;;;;6.05;5.07;;;;;;;18.82;72.76;100832.47;5073202;28;20047;-22
2022/08/21 01:32:51;;;;;;;5.22;4.65;;;;;;;18.82;72.63;100835.16;5055212;28;20353;-22
2022/08/21 01:35:18;;;;;;;6.10;4.90;;;;;;;18.80;72.66;100843.22;5072770;28;20028;-22
2022/08/21 01:37:45;;;;;;;5.93;5.35;;;;;;;18.79;72.58;100832.59;5072888;28;20050;-22
2022/08/21 01:40:12;;;;;;;5.85;5.22;;;;;;;18.77;72.53;100837.16;5071938;28;20099;-22
2022/08/21 01:42:37;;;;;;;5.55;4.95;;;;;;;18.76;72.56;100830.06;5071026;28;20078;-22
2022/08/21 01:45:04;;;;;;;5.07;4.57;;;;;;;18.75;72.37;100828.31;5072694;28;20393;-22
2022/08/21 01:47:29;;;;;;;5.03;4.55;;;;;;;18.75;72.40;100826.53;5073051;28;20027;-23
2022/08/21 01:49:55;;;;;;;5.00;4.53;;;;;;;18.72;72.30;100830.19;5072780;28;20032;-24
2022/08/21 01:52:20;;;;;;;5.70;4.65;;;;;;;18.72;72.34;100829.31;5071319;28;20054;-23
2022/08/21 01:54:45;;;;;;;5.45;4.72;;;;;;;18.70;72.52;100816.03;5072559;28;20391;-24
2022/08/21 01:57:11;;;;;;;5.53;4.70;;;;;;;18.70;72.50;100820.47;5072051;28;20028;-24
2022/08/21 01:59:37;;;;;;;4.88;4.40;;;;;;;18.68;72.27;100823.22;5071516;28;20040;-24
2022/08/21 02:02:03;;;;;;;7.43;4.82;;;;;;;18.66;72.12;100829.56;5072692;28;20416;-24
2022/08/21 02:04:28;;;;;;;4.57;4.20;;;;;;;18.66;72.57;100830.44;5072374;28;20503;-23
2022/08/21 02:06:54;;;;;;;4.40;4.00;;;;;;;18.67;72.18;100831.31;5072231;28;20016;-24
2022/08/21 02:09:19;;;;;;;5.32;4.93;;;;;;;18.65;72.09;100826.03;5072563;28;20466;-24
2022/08/21 02:11:44;;;;;;;4.60;4.20;;;;;;;18.65;72.25;100827.81;5072463;28;20638;-24
2022/08/21 02:14:13;;;;;;;4.70;4.07;;;;;;;18.63;72.16;100814.53;5071885;28;20103;-24
2022/08/21 02:16:39;;;;;;;4.55;4.07;;;;;;;18.61;72.24;100824.44;5070602;28;20078;-23
2022/08/21 02:19:05;;;;;;;5.45;4.53;;;;;;;18.59;71.92;100828.94;5072177;28;20055;-24
2022/08/21 02:21:31;;;;;;;4.28;3.88;;;;;;;18.58;72.26;100832.56;5072088;28;20071;-21
2022/08/21 02:23:56;;;;;;;5.28;4.88;;;;;;;18.56;72.30;100829.94;5071861;28;20082;-22
2022/08/21 02:26:21;;;;;;;4.88;4.20;;;;;;;18.56;72.14;100823.72;5071882;28;20124;-21
2022/08/21 02:28:47;;;;;;;4.70;3.92;;;;;;;18.56;72.15;100829.06;5072144;28;20020;-21
2022/08/21 02:31:12;;;;;;;4.65;3.85;;;;;;;18.57;72.41;100825.44;5072184;28;20025;-21
2022/08/21 02:33:39;;;;;;;4.90;4.40;;;;;;;18.53;72.29;100826.50;5071726;28;20048;-21
2022/08/21 02:36:04;;;;;;;4.35;3.95;;;;;;;18.53;72.22;100835.41;5070842;28;20033;-21
2022/08/21 02:38:33;;;;;;;5.20;4.47;;;;;;;18.51;72.42;100825.72;5072061;28;20028;-21
2022/08/21 02:40:58;;;;;;;4.47;4.07;;;;;;;18.50;72.05;100834.66;5071807;28;20025;-21
2022/08/21 02:43:25;;;;;;;4.68;4.28;;;;;;;18.49;72.19;100827.56;5071450;28;20111;-21
2022/08/21 02:45:52;;;;;;;8.30;4.75;;;;;;;18.47;72.39;100835.63;5071954;28;20115;-21
2022/08/21 02:48:20;;;;;;;4.97;4.57;;;;;;;18.45;72.27;100826.84;5071833;28;20017;-21
2022/08/21 02:50:56;;;;;;;4.90;4.50;;;;;;;18.43;72.25;100829.56;5071669;28;20495;-21
2022/08/21 02:53:22;;;;;;;4.35;3.95;;;;;;;18.41;72.27;100835.91;5071255;28;20462;-24
2022/08/21 02:55:49;;;;;;;5.13;4.03;;;;;;;18.39;72.50;100835.06;5070582;28;20017;-24
2022/08/21 02:58:17;;;;;;;5.65;4.50;;;;;;;18.38;72.44;100830.69;5071465;28;20036;-21
2022/08/21 03:00:43;;;;;;;4.78;4.30;;;;;;;18.36;72.54;100830.72;5071748;28;20031;-21
2022/08/21 03:03:09;;;;;;;4.57;4.18;;;;;;;18.36;72.32;100832.53;5060593;28;20028;-21
2022/08/21 03:05:37;;;;;;;5.15;4.30;;;;;;;18.34;72.55;100836.13;5067528;28;20013;-21
2022/08/21 03:08:09;;;;;;;3.92;3.53;;;;;;;18.33;72.59;100839.75;5064759;28;20064;-22
2022/08/21 03:10:35;;;;;;;5.13;4.68;;;;;;;18.30;72.51;100833.63;5067377;28;20033;-24
2022/08/21 03:13:02;;;;;;;4.80;4.15;;;;;;;18.31;72.42;100830.91;5066955;28;20063;-24
2022/08/21 03:15:27;;;;;;;4.93;4.40;;;;;;;18.29;72.56;100831.91;5064877;28;20068;-24
2022/08/21 03:17:54;;;;;;;6.35;4.55;;;;;;;18.27;72.39;100834.63;5064333;28;20162;-23
2022/08/21 03:20:22;;;;;;;4.70;4.30;;;;;;;18.26;72.75;100832.91;5063882;28;20428;-24
2022/08/21 03:22:47;;;;;;;4.90;3.85;;;;;;;18.25;72.37;100833.84;5064822;28;20113;-24
2022/08/21 03:25:13;;;;;;;4.78;4.28;;;;;;;18.23;72.82;100838.34;5060887;28;20036;-24
2022/08/21 03:27:38;;;;;;;4.35;3.97;;;;;;;18.22;72.60;100836.63;5059558;28;20032;-24
2022/08/21 03:30:06;;;;;;;4.50;4.05;;;;;;;18.21;72.42;100824.22;5065431;28;20020;-24
2022/08/21 03:32:31;;;;;;;5.70;4.57;;;;;;;18.20;72.70;100827.78;5061608;28;21023;-24
2022/08/21 03:34:57;;;;;;;5.57;3.75;;;;;;;18.16;72.61;100820.81;5058812;28;20078;-24
2022/08/21 03:37:24;;;;;;;4.00;3.70;;;;;;;18.14;72.57;100815.53;5064008;28;20025;-24
2022/08/21 03:39:49;;;;;;;4.38;3.90;;;;;;;18.12;72.86;100819.22;5063706;28;20020;-24
2022/08/21 03:42:15;;;;;;;4.63;3.85;;;;;;;18.11;72.81;100817.47;5064574;28;20036;-24
2022/08/21 03:44:40;;;;;;;4.38;3.95;;;;;;;18.10;72.62;100815.75;5066255;28;20096;-24
2022/08/21 03:47:06;;;;;;;3.78;3.40;;;;;;;18.07;72.45;100817.56;5067879;28;20104;-23
2022/08/21 03:49:31;;;;;;;3.92;3.53;;;;;;;18.06;72.63;100815.81;5063338;28;20028;-23
2022/08/21 03:51:57;;;;;;;6.53;3.97;;;;;;;18.05;72.38;100824.78;5066708;28;20227;-24
2022/08/21 03:54:22;;;;;;;4.22;3.83;;;;;;;18.01;72.61;100825.78;5067977;28;20519;-23
2022/08/21 03:56:48;;;;;;;4.75;3.83;;;;;;;17.98;72.61;100823.25;5068611;28;20021;-23
2022/08/21 03:59:13;;;;;;;3.92;3.63;;;;;;;17.97;72.47;100826.84;5071052;28;20519;-24
2022/08/21 04:01:39;;;;;;;3.70;3.28;;;;;;;17.96;72.49;100835.78;5073268;28;20020;-24
2022/08/21 04:04:05;;;;;;;3.95;3.50;;;;;;;17.91;72.49;100838.59;5069030;28;20391;-23
2022/08/21 04:06:30;;;;;;;4.13;3.72;;;;;;;17.90;72.46;100842.22;5068554;28;20013;-24
2022/08/21 04:08:56;;;;;;;3.70;3.40;;;;;;;17.87;72.54;100847.66;5071667;28;20039;-24
2022/08/21 04:11:21;;;;;;;4.15;3.78;;;;;;;17.87;72.62;100850.31;5069030;28;20081;-24
2022/08/21 04:13:48;;;;;;;3.45;3.15;;;;;;;17.81;72.43;100851.41;5066196;28;20032;-23
2022/08/21 04:16:14;;;;;;;3.60;3.30;;;;;;;17.81;72.64;100846.09;5068305;28;20051;-24
2022/08/21 04:18:39;;;;;;;4.07;3.20;;;;;;;17.78;72.72;100848.84;5062288;28;20449;-23
2022/08/21 04:21:06;;;;;;;3.90;3.50;;;;;;;17.76;72.40;100844.50;5068708;28;20027;-24
2022/08/21 04:23:31;;;;;;;4.72;3.63;;;;;;;17.72;72.42;100849.09;5065635;28;20365;-24
2022/08/21 04:25:57;;;;;;;5.13;3.53;;;;;;;17.71;72.26;100844.69;5067670;28;20492;-24
2022/08/21 04:28:24;;;;;;;3.55;3.10;;;;;;;17.69;72.38;100849.22;5070131;28;20530;-24
2022/08/21 04:30:51;;;;;;;3.80;3.50;;;;;;;17.67;72.59;100859.03;5069863;28;20052;-24
2022/08/21 04:33:17;;;;;;;4.35;3.35;;;;;;;17.63;72.30;100855.63;5069406;28;20024;-24
2022/08/21 04:35:42;;;;;;;3.90;3.17;;;;;;;17.62;72.40;100858.34;5069420;28;20369;-24
2022/08/21 04:38:07;;;;;;;3.67;3.30;;;;;;;17.59;72.76;100858.47;5067279;28;20480;-23
2022/08/21 04:40:33;;;;;;;4.30;3.28;;;;;;;17.57;72.58;100869.16;5060846;28;20021;-24
2022/08/21 04:43:03;;;;;;;3.83;3.42;;;;;;;17.56;72.54;100867.44;5071562;28;20020;-24
2022/08/21 04:45:35;;;;;;;3.33;3.03;;;;;;;17.54;72.56;100872.81;5062496;28;20075;-24
2022/08/21 04:48:03;;;;;;;7.28;3.70;;;;;;;17.52;72.40;100873.81;5071159;28;20364;-24
2022/08/21 04:50:58;;;;;;;3.42;3.13;;;;;;;17.50;72.52;100876.53;5068858;28;20035;-24
2022/08/21 04:53:23;;;;;;;4.60;3.50;;;;;;;17.49;72.44;100868.56;5066717;28;20032;-24
2022/08/21 04:55:50;;;;;;;3.00;2.80;;;;;;;17.44;72.80;100882.09;5069057;28;20021;-23
2022/08/21 04:58:18;;;;;;;4.28;3.15;;;;;;;17.42;72.51;100878.59;5062201;28;20275;-24
2022/08/21 05:00:44;;;;;;;3.08;2.78;;;;;;;17.41;72.26;100871.53;5064751;28;20505;-24
2022/08/21 05:03:11;;;;;;;3.50;3.20;;;;;;;17.41;72.21;100874.19;5060014;28;20054;-24
2022/08/21 05:05:37;;;;;;;3.50;3.20;;;;;;;17.37;72.47;100876.06;5061740;28;20016;-24
2022/08/21 05:08:03;;;;;;;5.53;3.55;;;;;;;17.35;72.43;100877.06;5063780;28;20066;-23
2022/08/21 05:10:28;;;;;;;6.63;3.38;;;;;;;17.33;72.36;100868.25;5067567;28;20352;-24
2022/08/21 05:12:54;;;;;;;3.55;3.25;;;;;;;17.34;72.65;100870.00;5067144;28;21045;-24
2022/08/21 05:15:19;;;;;;;3.35;2.35;;;;;;;17.31;72.67;100873.63;5066513;28;20028;-24
2022/08/21 05:17:45;;;;;;;3.95;2.85;;;;;;;17.31;72.46;100877.16;5065161;28;20027;-24
2022/08/21 05:20:11;;;;;;;3.42;3.13;;;;;;;17.29;72.54;100873.69;5064624;28;20029;-24
2022/08/21 05:22:37;;;;;;;3.88;3.47;;;;;;;17.29;72.42;100881.69;5064557;28;20096;-24
2022/08/21 05:25:04;;;;;;;3.75;2.97;;;;;;;17.27;72.73;100886.19;5065755;28;20107;-24
2022/08/21 05:27:30;;;;;;;3.78;3.33;;;;;;;17.26;72.80;100883.56;5065875;28;20025;-24
2022/08/21 05:29:56;;;;;;;4.57;3.30;;;;;;;17.26;72.65;100887.13;5066642;28;20036;-24
2022/08/21 05:32:21;;;;;;;3.40;2.92;;;;;;;17.25;72.58;100888.06;5067054;28;20020;-24
2022/08/21 05:34:47;;;;;;;3.38;3.08;;;;;;;17.22;72.85;100887.25;5062318;28;20025;-24
2022/08/21 05:37:12;;;;;;;3.08;2.78;;;;;;;17.23;72.78;100894.31;5064122;28;20024;-24
2022/08/21 05:39:37;;;;;;;5.22;3.03;;;;;;;17.22;72.62;100893.47;5063521;28;20029;-24
2022/08/21 05:42:03;;;;;;;3.92;3.60;;;;;;;17.22;72.52;100897.94;5068172;28;20028;-24
2022/08/21 05:44:28;;;;;;;3.53;2.90;;;;;;;17.22;72.86;100901.47;5068681;28;20040;-24
2022/08/21 05:46:54;;;;;;;3.47;3.17;;;;;;;17.23;72.37;100903.22;5064918;28;20031;-24
2022/08/21 05:49:19;;;;;;;2.92;2.72;;;;;;;17.24;72.83;100896.09;5064437;28;20021;-24
2022/08/21 05:51:44;;;;;;;3.00;2.80;;;;;;;17.22;72.73;100896.13;5065640;28;20020;-23
2022/08/21 05:54:10;;;;;;;3.28;3.05;;;;;;;17.25;72.56;100903.16;5067867;28;20042;-24
2022/08/21 05:56:36;;;;;;;3.63;2.78;;;;;;;17.26;72.46;100904.91;5065708;28;20017;-23
2022/08/21 05:59:01;;;;;;;3.47;2.50;;;;;;;17.27;72.36;100904.84;5064054;28;20029;-24
2022/08/21 06:01:27;;;;;;;3.75;2.60;;;;;;;17.30;72.61;100910.06;5066257;28;20033;-24
2022/08/21 06:03:52;;;;;;;3.17;2.50;;;;;;;17.31;72.79;100906.47;5068044;28;20024;-24
2022/08/21 06:06:18;;;;;;;3.00;2.72;;;;;;;17.32;72.43;100910.03;5067317;28;20028;-24
2022/08/21 06:08:43;;;;;;;3.47;2.70;;;;;;;17.35;72.60;100909.06;5066754;28;20055;-24
2022/08/21 06:11:09;;;;;;;3.00;2.78;;;;;;;17.36;72.58;100914.34;5067047;28;20036;-23
2022/08/21 06:13:35;;;;;;;2.88;2.40;;;;;;;17.38;72.36;100915.16;5083077;28;20450;-24
2022/08/21 06:16:07;;;;;;;2.55;2.35;;;;;;;17.40;72.15;100912.41;5048911;28;20020;-25
2022/08/21 06:18:33;;;;;;;3.38;2.53;;;;;;;17.42;72.40;100922.13;5065718;28;20017;-23
2022/08/21 06:20:58;;;;;;;3.55;2.92;;;;;;;17.45;72.51;100921.16;5065125;28;20020;-24
2022/08/21 06:23:24;;;;;;;5.78;2.85;;;;;;;17.47;72.55;100918.44;5061206;28;20032;-24
2022/08/21 06:25:49;;;;;;;5.22;3.03;;;;;;;17.48;72.28;100918.38;5067140;28;20048;-24
2022/08/21 06:28:14;;;;;;;3.20;2.45;;;;;;;17.51;72.14;100920.91;5063902;28;20029;-24
2022/08/21 06:30:40;;;;;;;3.42;3.10;;;;;;;17.54;72.22;100919.97;5069540;28;20073;-24
2022/08/21 06:33:06;;;;;;;2.33;2.13;;;;;;;17.56;72.01;100918.09;5064727;28;20108;-24
2022/08/21 06:35:32;;;;;;;3.00;2.45;;;;;;;17.57;72.23;100914.50;5066542;28;20028;-23
2022/08/21 06:37:57;;;;;;;3.97;3.13;;;;;;;17.59;71.84;100911.78;5065698;28;20024;-24
2022/08/21 06:40:22;;;;;;;3.15;2.50;;;;;;;17.61;71.81;100909.94;5064130;28;20145;-24
2022/08/21 06:42:48;;;;;;;2.28;2.08;;;;;;;17.62;72.02;100909.91;5064620;28;20021;-24
2022/08/21 06:45:14;;;;;;;4.47;2.58;;;;;;;17.66;71.87;100908.00;5062914;28;20025;-24
2022/08/21 06:47:39;;;;;;;2.58;2.38;;;;;;;17.67;71.83;100910.59;5066400;28;20024;-24
2022/08/21 06:50:07;;;;;;;3.03;2.50;;;;;;;17.70;72.06;100899.84;5066673;28;20111;-24
2022/08/21 06:52:33;;;;;;;3.30;3.00;;;;;;;17.73;72.12;100908.63;5069906;28;20020;-24
2022/08/21 06:54:58;;;;;;;2.83;2.63;;;;;;;17.76;71.94;100901.41;5066754;28;20070;-24
2022/08/21 06:57:25;;;;;;;6.13;3.42;;;;;;;17.79;72.65;100903.97;5066256;28;20430;-24
2022/08/21 06:59:50;;;;;;;3.92;2.20;;;;;;;17.82;72.13;100898.53;5061428;28;20439;-23
2022/08/21 07:02:16;;;;;;;2.75;2.33;;;;;;;17.87;72.06;100902.84;5064351;28;20508;-24
2022/08/21 07:04:41;;;;;;;2.83;2.50;;;;;;;17.90;72.23;100905.34;5066402;28;20070;-24
2022/08/21 07:07:07;;;;;;;2.53;2.33;;;;;;;17.94;72.13;100904.34;5065054;28;20019;-24
2022/08/21 07:09:32;;;;;;;3.95;2.47;;;;;;;17.98;71.80;100905.97;5063382;28;20037;-24
2022/08/21 07:11:58;;;;;;;6.15;2.55;;;;;;;18.01;72.25;100905.84;5064911;28;20384;-23
2022/08/21 07:14:23;;;;;;;3.03;2.65;;;;;;;18.04;72.14;100903.06;5064252;28;20040;-23
2022/08/21 07:16:50;;;;;;;3.42;2.72;;;;;;;18.08;72.02;100907.34;5065231;28;20031;-24
2022/08/21 07:19:15;;;;;;;3.30;2.97;;;;;;;18.12;71.72;100901.94;5065370;28;20021;-24
2022/08/21 07:21:41;;;;;;;4.22;2.70;;;;;;;18.15;71.59;100897.38;5066925;28;20380;-24
2022/08/21 07:24:06;;;;;;;2.47;2.25;;;;;;;18.18;71.78;100901.72;5068181;28;20020;-24
2022/08/21 07:26:32;;;;;;;3.08;2.78;;;;;;;18.20;71.82;100889.19;5064559;28;20025;-24
2022/08/21 07:28:57;;;;;;;2.40;2.20;;;;;;;18.24;72.00;100893.47;5069772;28;20695;-24
2022/08/21 07:31:24;;;;;;;3.05;2.50;;;;;;;18.29;71.42;100899.53;5068174;28;20165;-24
2022/08/21 07:33:49;;;;;;;3.67;2.30;;;;;;;18.36;71.34;100896.59;5071594;28;20035;-24
2022/08/21 07:36:15;;;;;;;2.45;2.25;;;;;;;18.41;71.26;100891.97;5069370;28;20025;-25
2022/08/21 07:38:40;;;;;;;2.90;2.15;;;;;;;18.48;71.48;100895.25;5070217;28;20025;-24
2022/08/21 07:41:14;;;;;;;4.50;2.90;;;;;;;18.53;71.13;100896.81;5069993;28;20025;-24
2022/08/21 07:43:39;;;;;;;3.47;2.67;;;;;;;18.57;70.78;100898.44;5067620;28;20031;-24
2022/08/21 07:46:05;;;;;;;3.63;2.20;;;;;;;18.63;70.69;100900.00;5071046;28;20021;-23
2022/08/21 07:48:30;;;;;;;2.60;2.30;;;;;;;18.69;70.79;100906.91;5067992;28;20036;-24
2022/08/21 07:50:55;;;;;;;2.25;2.15;;;;;;;18.74;70.47;100902.25;5067236;28;20025;-24
2022/08/21 07:53:21;;;;;;;2.83;2.58;;;;;;;18.81;70.35;100902.88;5065428;28;20448;-23
2022/08/21 07:55:46;;;;;;;2.25;2.05;;;;;;;18.88;70.28;100900.84;5069829;28;20032;-24
2022/08/21 07:58:12;;;;;;;4.05;2.25;;;;;;;18.95;70.08;100905.88;5068337;28;20028;-24
2022/08/21 08:00:37;;;;;;;2.28;2.00;;;;;;;19.02;69.97;100898.47;5069734;28;20392;-24
2022/08/21 08:03:03;;;;;;;3.65;2.90;;;;;;;19.13;69.88;100902.50;5071158;28;20077;-24
2022/08/21 08:05:29;;;;;;;2.72;2.05;;;;;;;19.18;69.17;100900.53;5070429;28;20866;-24
2022/08/21 08:07:55;;;;;;;3.42;2.63;;;;;;;19.25;69.50;100891.31;5069075;28;20020;-24
2022/08/21 08:10:22;;;;;;;2.65;2.45;;;;;;;19.32;69.08;100892.81;5062451;28;20108;-23
2022/08/21 08:12:48;;;;;;;2.42;2.20;;;;;;;19.40;69.09;100884.44;5069554;28;20017;-24
2022/08/21 08:15:19;;;;;;;4.30;2.28;;;;;;;19.47;68.76;100885.91;5071106;28;20025;-24
2022/08/21 08:17:45;;;;;;;3.45;2.20;;;;;;;19.55;68.88;100890.94;5065215;28;20471;-24
2022/08/21 08:20:12;;;;;;;3.35;2.10;;;;;;;19.65;68.79;100890.53;5071727;28;20027;-24
2022/08/21 08:22:38;;;;;;;3.33;1.98;;;;;;;19.74;68.28;100887.47;5067313;28;20104;-24
2022/08/21 08:25:05;;;;;;;3.50;2.05;;;;;;;19.86;67.89;100883.34;5066851;28;20017;-24
2022/08/21 08:27:30;;;;;;;2.63;2.40;;;;;;;19.96;67.99;100881.13;5068512;28;20039;-24
2022/08/21 08:29:56;;;;;;;2.28;2.08;;;;;;;20.09;68.20;100873.44;5066877;28;20025;-23
2022/08/21 08:32:22;;;;;;;2.63;2.15;;;;;;;20.22;67.76;100876.41;5069695;28;20103;-24
2022/08/21 08:34:48;;;;;;;2.28;2.08;;;;;;;20.32;67.29;100874.19;5064056;28;20068;-24
2022/08/21 08:37:14;;;;;;;3.60;2.03;;;;;;;20.40;67.39;100874.69;5069423;28;20047;-24
2022/08/21 08:39:40;;;;;;;3.60;2.22;;;;;;;20.53;67.16;100869.59;5065414;28;20028;-24
2022/08/21 08:42:13;;;;;;;1.63;1.52;;;;;;;20.63;66.44;100867.34;5070719;28;20020;-24
2022/08/21 08:44:42;;;;;;;2.80;2.60;;;;;;;20.72;66.19;100874.06;5066917;28;20028;-24
2022/08/21 08:47:09;;;;;;;2.20;1.60;;;;;;;20.83;65.69;100877.09;5066362;28;20016;-24
2022/08/21 08:49:39;;;;;;;3.58;2.15;;;;;;;20.98;65.37;100874.63;5063543;28;20028;-24
2022/08/21 08:52:14;;;;;;;2.88;2.67;;;;;;;21.04;64.59;100874.31;5069233;28;20024;-24
2022/08/21 08:54:43;;;;;;;2.00;1.83;;;;;;;21.12;64.37;100877.50;5069053;28;20074;-24
2022/08/21 08:57:16;;;;;;;3.50;2.20;;;;;;;21.23;64.46;100876.06;5068262;28;20388;-24
2022/08/21 08:59:44;;;;;;;3.42;2.70;;;;;;;21.32;64.14;100877.41;5069307;28;20025;-24
2022/08/21 09:02:11;;;;;;;2.55;2.05;;;;;;;21.40;64.06;100873.41;5066560;28;20112;-25
2022/08/21 09:04:37;;;;;;;3.60;1.90;;;;;;;21.48;64.23;100864.09;5068429;28;20349;-24
2022/08/21 09:07:20;;;;;;;4.07;2.05;;;;;;;21.57;63.91;100870.78;5067406;28;20036;-24
2022/08/21 09:09:54;;;;;;;3.50;1.80;;;;;;;21.70;63.97;100866.50;5068216;28;20464;-24
2022/08/21 09:12:41;;;;;;;3.60;1.90;;;;;;;21.86;63.67;100863.03;5067869;28;20020;-24
2022/08/21 09:15:24;;;;;;;3.83;2.05;;;;;;;22.00;63.54;100862.28;5067366;28;20125;-24
2022/08/21 09:18:21;;;;;;;3.00;1.88;;;;;;;22.10;63.67;100862.63;5070242;28;20020;-24
2022/08/21 09:20:53;;;;;;;4.05;2.15;;;;;;;22.21;62.63;100859.38;5065669;28;20438;-24
2022/08/21 09:23:49;;;;;;;3.63;2.10;;;;;;;22.35;62.88;100863.97;5066631;28;20013;-24
2022/08/21 09:26:26;;;;;;;2.13;1.88;;;;;;;22.49;63.27;100856.00;5068963;28;20029;-24
2022/08/21 09:28:56;;;;;;;2.03;1.83;;;;;;;22.60;62.93;100852.72;5068152;28;20082;-24
2022/08/21 09:31:33;;;;;;;2.78;2.03;;;;;;;22.64;62.27;100850.75;5065519;28;20522;-24
2022/08/21 09:34:09;;;;;;;3.00;1.88;;;;;;;22.71;62.08;100848.56;5068394;28;21333;-24
2022/08/21 09:36:42;;;;;;;6.32;1.92;;;;;;;22.80;60.93;100856.09;5065590;28;20143;-24
2022/08/21 09:39:10;;;;;;;3.20;2.30;;;;;;;22.89;61.56;100850.19;5067377;28;20481;-24
2022/08/21 09:41:36;;;;;;;1.88;1.70;;;;;;;23.02;59.67;100860.22;5068561;28;20020;-24
2022/08/21 09:44:03;;;;;;;4.13;2.00;;;;;;;23.10;60.53;100862.47;5068711;28;20104;-24
2022/08/21 09:46:28;;;;;;;7.88;2.45;;;;;;;23.12;59.23;100850.66;5064988;28;20210;-24
2022/08/21 09:48:56;;;;;;;3.28;1.98;;;;;;;23.16;60.63;100854.88;5065185;28;20029;-24
2022/08/21 09:51:25;;;;;;;2.10;1.90;;;;;;;23.22;59.44;100858.16;5068968;28;20109;-24
2022/08/21 09:53:56;;;;;;;2.78;2.05;;;;;;;23.30;60.14;100861.25;5064513;28;20507;-24
2022/08/21 09:59:31;;;;;;;1.67;1.42;;;;;;;23.48;60.65;100862.00;5066751;28;20427;-24
2022/08/21 10:01:59;;;;;;;2.70;2.15;;;;;;;23.63;60.56;100860.19;5070804;28;20039;-24
2022/08/21 10:04:29;;;;;;;4.68;2.00;;;;;;;23.75;59.83;100860.41;5067990;28;20433;-24
2022/08/21 10:06:54;;;;;;;;;;;;;;;23.86;60.47;100857.91;5067559;28;20028;-24
2022/08/21 10:09:21;;;;;;;3.42;2.22;;;;;;;24.00;59.89;100858.88;5065672;28;19961;-24
2022/08/21 10:11:58;;;;;;;4.05;2.13;;;;;;;24.10;59.13;100862.69;5065265;28;20021;-24
2022/08/21 10:14:47;;;;;;;2.53;1.63;;;;;;;24.16;59.13;100851.56;5065108;28;20392;-24
2022/08/21 10:17:32;;;;;;;1.92;1.73;;;;;;;24.27;59.26;100841.94;5068566;28;20033;-22
2022/08/21 10:20:06;;;;;;;3.03;2.10;;;;;;;24.39;59.19;100851.03;5065584;28;20537;-22
2022/08/21 10:23:27;;;;;;;4.25;2.13;;;;;;;24.58;57.67;100850.72;5069123;28;20042;-22
2022/08/21 10:26:16;;;;;;;;;;;;;;;24.73;58.57;100849.69;5052337;28;20055;-22
2022/08/21 10:28:51;;;;;;;5.00;2.28;;;;;;;24.77;57.43;100846.78;5042844;28;20279;-22
2022/08/21 10:31:41;;;;;;;2.92;2.00;;;;;;;24.81;56.26;100837.53;5058404;28;20467;-22
2022/08/21 10:34:09;;;;;;;3.58;1.75;;;;;;;24.82;56.66;100841.94;5066985;28;20046;-22
2022/08/21 10:36:47;;;;;;;2.00;1.80;;;;;;;24.85;55.99;100847.13;5067365;28;20027;-22
2022/08/21 10:39:16;;;;;;;2.88;1.70;;;;;;;24.87;56.07;100845.22;5067357;28;20050;-22
2022/08/21 10:41:42;;;;;;;3.63;1.80;;;;;;;24.90;56.35;100844.19;5066536;28;20028;-22
2022/08/21 10:44:26;;;;;;;3.83;2.07;;;;;;;24.93;56.48;100844.81;5064833;28;20029;-22
2022/08/21 10:47:05;;;;;;;1.83;1.70;;;;;;;24.97;55.95;100840.06;5067784;28;20320;-22
2022/08/21 10:49:47;;;;;;;4.10;2.05;;;;;;;25.00;55.50;100845.25;5061935;28;20023;-22
2022/08/21 10:52:31;;;;;;;2.65;2.10;;;;;;;25.04;55.04;100835.13;5066606;28;20070;-22
2022/08/21 10:55:05;;;;;;;4.07;1.90;;;;;;;25.04;55.22;100837.84;5067063;28;20502;-22
2022/08/21 10:57:55;;;;;;;2.03;1.63;;;;;;;25.06;54.92;100835.88;5065126;28;20387;-22
2022/08/21 11:00:23;;;;;;;4.07;1.87;;;;;;;25.08;54.51;100839.34;5056420;28;20021;-22
2022/08/21 11:03:08;;;;;;;2.80;1.90;;;;;;;25.15;55.62;100829.00;5066706;28;20039;-22
2022/08/21 11:05:47;;;;;;;2.33;1.88;;;;;;;25.24;54.82;100831.94;5028493;28;20499;-22
2022/08/21 11:08:40;;;;;;;2.40;1.90;;;;;;;25.35;54.93;100827.63;5060545;28;20119;-22
2022/08/21 11:11:10;;;;;;;2.72;1.92;;;;;;;25.41;54.23;100829.88;5059523;28;20044;-22
2022/08/21 11:13:45;;;;;;;3.00;2.00;;;;;;;25.49;53.85;100824.84;5061319;28;20400;-22
2022/08/21 11:16:29;;;;;;;2.75;1.95;;;;;;;25.53;54.39;100825.47;5078403;28;20055;-22
2022/08/21 11:19:13;;;;;;;1.95;1.75;;;;;;;25.52;53.16;100822.88;5061857;28;20029;-22
2022/08/21 11:21:54;;;;;;;2.08;1.80;;;;;;;25.52;53.49;100817.47;5077284;28;20055;-22
2022/08/21 11:24:38;;;;;;;;;;;;;;;25.52;53.53;100822.88;5064878;28;20028;-22
2022/08/21 11:27:21;;;;;;;3.28;1.70;;;;;;;25.50;53.85;100818.44;5060951;28;20011;-22
2022/08/21 11:29:59;;;;;;;3.72;2.53;;;;;;;25.49;53.36;100808.63;5064320;28;20408;-22
2022/08/21 11:32:49;;;;;;;4.45;2.22;;;;;;;25.52;53.09;100817.47;5061695;28;20033;-22
2022/08/21 11:35:20;;;;;;;;;;;;;;;25.56;52.89;100813.59;5061048;28;20036;-22
2022/08/21 11:38:13;;;;;;;3.20;2.10;;;;;;;25.61;52.69;100812.31;5060619;28;19913;-22